Time;durP1;ratioP1;P1;durP2;ratioP2;P2;SDS_P1;SDS_P2;PMS_P1;PMS_P2;Temp;Humidity;BMP_temperature;BMP_pressure;BME280_temperature;BME280_humidity;BME280_pressure;Samples;Min_cycle;Max_cycle;Signal;HPM_P1;HPM_P2
2023/07/16 00:00:41;;;;;;;4.80;2.80;;;;;;;23.28;51.85;100835.97;5095796;28;20031;-50
2023/07/16 00:03:08;;;;;;;7.05;3.35;;;;;;;23.18;51.45;100840.44;5095717;28;20381;-49
2023/07/16 00:05:37;;;;;;;4.20;2.95;;;;;;;23.11;51.59;100842.72;5095197;28;20043;-48
2023/07/16 00:08:03;;;;;;;3.95;3.30;;;;;;;23.21;51.48;100830.88;5095556;28;20035;-51
2023/07/16 00:10:30;;;;;;;3.78;2.58;;;;;;;23.35;51.95;100831.78;5092763;28;20020;-47
2023/07/16 00:12:56;;;;;;;4.68;3.17;;;;;;;23.44;51.75;100827.31;5086632;28;20034;-47
2023/07/16 00:15:22;;;;;;;4.90;2.47;;;;;;;23.57;50.68;100822.22;5095266;28;20039;-47
2023/07/16 00:17:49;;;;;;;5.90;2.95;;;;;;;23.56;50.94;100834.25;5077624;28;20095;-47
2023/07/16 00:20:15;;;;;;;5.20;3.40;;;;;;;23.62;50.35;100827.63;5095266;28;20032;-50
2023/07/16 00:22:41;;;;;;;5.82;3.30;;;;;;;23.61;50.65;100826.81;5095154;28;20031;-49
2023/07/16 00:25:08;;;;;;;5.68;3.00;;;;;;;23.26;51.78;100821.78;5094553;28;20103;-49
2023/07/16 00:27:34;;;;;;;4.22;3.08;;;;;;;23.17;51.77;100821.63;5095427;28;20078;-49
2023/07/16 00:30:00;;;;;;;6.95;3.08;;;;;;;23.09;52.82;100830.44;5095334;28;20016;-47
2023/07/16 00:32:27;;;;;;;5.00;3.13;;;;;;;22.91;52.83;100823.81;5095294;28;20039;-49
2023/07/16 00:34:53;;;;;;;4.35;3.00;;;;;;;23.15;53.76;100823.81;5094293;28;20024;-51
2023/07/16 00:37:22;;;;;;;3.90;2.75;;;;;;;23.17;52.63;100830.63;5095131;28;20020;-49
2023/07/16 00:39:48;;;;;;;5.95;3.10;;;;;;;23.17;52.97;100816.97;5090673;28;20055;-50
2023/07/16 00:42:15;;;;;;;4.95;3.05;;;;;;;23.00;52.78;100824.00;5074910;28;20056;-50
2023/07/16 00:44:41;;;;;;;5.18;3.60;;;;;;;22.96;53.56;100820.22;5075134;28;20525;-50
2023/07/16 00:47:08;;;;;;;9.15;3.92;;;;;;;22.82;54.24;100820.88;5094444;28;20110;-50
2023/07/16 00:49:35;;;;;;;7.55;3.63;;;;;;;22.67;54.27;100821.03;5094792;28;20032;-47
2023/07/16 00:52:02;;;;;;;5.45;3.47;;;;;;;22.71;54.00;100822.09;5090237;28;20028;-50
2023/07/16 00:54:31;;;;;;;7.32;3.95;;;;;;;22.30;55.44;100811.50;5073050;28;20024;-47
2023/07/16 00:56:57;;;;;;;9.60;3.90;;;;;;;22.44;54.61;100816.31;5085935;28;20131;-47
2023/07/16 00:59:23;;;;;;;7.60;4.00;;;;;;;22.15;55.17;100811.63;5091546;28;20060;-48
2023/07/16 01:01:50;;;;;;;7.05;3.33;;;;;;;22.03;56.11;100811.13;5092959;28;20164;-50
2023/07/16 01:04:16;;;;;;;6.78;3.92;;;;;;;22.07;55.54;100813.00;5094118;28;20095;-50
2023/07/16 01:06:49;;;;;;;8.77;4.10;;;;;;;21.86;56.70;100815.06;5094204;28;20102;-50
2023/07/16 01:09:17;;;;;;;6.63;4.00;;;;;;;21.94;56.78;100802.75;5094488;28;20389;-48
2023/07/16 01:11:48;;;;;;;8.05;4.03;;;;;;;22.03;56.51;100803.78;5084866;28;20039;-49
2023/07/16 01:14:17;;;;;;;9.35;4.25;;;;;;;21.91;56.96;100805.22;5075972;28;20028;-47
2023/07/16 01:16:44;;;;;;;9.30;4.07;;;;;;;21.70;58.26;100809.97;5076057;28;20150;-49
2023/07/16 01:19:10;;;;;;;9.57;4.50;;;;;;;21.54;58.53;100798.34;5094634;28;20036;-46
2023/07/16 01:22:01;;;;;;;12.55;4.53;;;;;;;21.60;57.83;100797.25;5094535;28;20403;-47
2023/07/16 01:24:51;;;;;;;7.30;4.15;;;;;;;21.52;57.93;100803.25;5089505;28;20060;-47
2023/07/16 01:27:55;;;;;;;12.85;4.65;;;;;;;21.56;57.82;100804.34;5093859;28;20030;-48
2023/07/16 01:30:22;;;;;;;13.52;4.53;;;;;;;21.45;58.30;100803.56;5093581;28;20545;-46
2023/07/16 01:32:49;;;;;;;9.20;4.47;;;;;;;21.28;58.93;100808.50;5094209;28;20378;-48
2023/07/16 01:35:16;;;;;;;11.70;4.82;;;;;;;20.64;60.05;100807.28;5075525;28;20024;-50
2023/07/16 01:37:42;;;;;;;10.85;5.50;;;;;;;20.75;60.00;100808.09;5093698;28;20120;-50
2023/07/16 01:40:09;;;;;;;10.40;5.03;;;;;;;20.71;61.33;100802.41;5092160;28;20028;-47
2023/07/16 01:42:35;;;;;;;17.90;5.85;;;;;;;20.59;61.13;100807.28;5094239;28;20107;-47
2023/07/16 01:45:01;;;;;;;12.48;5.90;;;;;;;20.54;61.74;100804.56;5093734;28;20024;-47
2023/07/16 01:47:40;;;;;;;16.52;5.82;;;;;;;20.72;61.29;100800.50;5093294;28;20027;-47
2023/07/16 01:50:07;;;;;;;13.77;5.70;;;;;;;20.49;60.98;100801.91;5073620;28;20029;-48
2023/07/16 01:52:33;;;;;;;13.40;6.10;;;;;;;20.14;62.52;100799.94;5073416;28;20032;-45
2023/07/16 01:55:00;;;;;;;11.75;6.30;;;;;;;20.62;61.63;100801.31;5073221;28;20032;-46
2023/07/16 01:57:26;;;;;;;15.80;6.13;;;;;;;20.82;61.01;100803.19;5073160;28;20056;-50
2023/07/16 01:59:52;;;;;;;14.75;5.72;;;;;;;20.69;60.95;100801.84;5092400;28;20082;-49
2023/07/16 02:02:18;;;;;;;11.48;6.75;;;;;;;20.70;59.90;100806.19;5092546;28;20385;-48
2023/07/16 02:04:44;;;;;;;13.15;6.15;;;;;;;20.59;60.67;100796.41;5093084;28;20021;-46
2023/07/16 02:07:11;;;;;;;19.27;7.13;;;;;;;20.53;60.65;100794.78;5093387;28;20028;-47
2023/07/16 02:09:37;;;;;;;15.82;6.78;;;;;;;20.50;61.24;100793.44;5092957;28;20120;-49
2023/07/16 02:12:03;;;;;;;19.63;6.03;;;;;;;20.38;61.52;100789.34;5093170;28;20043;-47
2023/07/16 02:14:30;;;;;;;15.07;6.38;;;;;;;20.69;60.21;100784.72;5092267;28;20035;-47
2023/07/16 02:16:56;;;;;;;19.30;6.63;;;;;;;20.32;61.30;100793.94;5093026;28;20424;-50
2023/07/16 02:19:23;;;;;;;18.80;6.95;;;;;;;20.59;60.37;100795.59;5091518;28;20024;-46
2023/07/16 02:21:49;;;;;;;15.55;6.30;;;;;;;20.92;59.73;100788.75;5092762;28;20082;-46
2023/07/16 02:24:15;;;;;;;9.98;6.38;;;;;;;21.12;58.33;100788.69;5092248;28;20032;-49
2023/07/16 02:26:42;;;;;;;13.90;6.57;;;;;;;21.16;58.15;100778.91;5090232;28;20074;-46
2023/07/16 02:29:08;;;;;;;12.30;6.18;;;;;;;21.15;58.19;100788.13;5092567;28;20037;-51
2023/07/16 02:31:36;;;;;;;12.00;6.20;;;;;;;21.23;57.81;100786.75;5074569;28;20382;-47
2023/07/16 02:34:02;;;;;;;15.88;6.70;;;;;;;21.33;57.58;100789.47;5088726;28;20032;-47
2023/07/16 02:36:28;;;;;;;13.88;6.43;;;;;;;21.16;58.09;100778.91;5089660;28;20377;-48
2023/07/16 02:38:54;;;;;;;10.00;6.65;;;;;;;21.17;57.56;100779.69;5089398;28;20481;-48
2023/07/16 02:41:21;;;;;;;12.18;6.43;;;;;;;20.46;60.14;100778.75;5090867;28;20036;-46
2023/07/16 02:43:47;;;;;;;14.10;6.80;;;;;;;20.21;60.74;100782.28;5092368;28;20407;-45
2023/07/16 02:46:13;;;;;;;15.45;6.60;;;;;;;19.75;62.26;100787.66;5091086;28;20028;-48
2023/07/16 02:48:40;;;;;;;15.55;8.13;;;;;;;19.13;64.53;100793.09;5091782;28;20036;-50
2023/07/16 02:51:06;;;;;;;10.38;6.13;;;;;;;19.17;64.65;100797.75;5073584;28;20038;-49
2023/07/16 02:53:32;;;;;;;11.90;5.88;;;;;;;19.21;64.52;100798.00;5092279;28;20024;-52
2023/07/16 02:55:58;;;;;;;14.15;6.25;;;;;;;18.90;65.94;100797.03;5090593;28;20046;-51
2023/07/16 02:58:24;;;;;;;13.75;6.55;;;;;;;18.54;66.78;100798.66;5091137;28;20469;-50
2023/07/16 03:00:51;;;;;;;14.27;6.55;;;;;;;18.27;68.50;100796.03;5091757;28;20145;-51
2023/07/16 03:03:17;;;;;;;15.55;6.95;;;;;;;17.53;71.45;100799.28;5091758;28;20054;-52
2023/07/16 03:05:43;;;;;;;14.63;7.10;;;;;;;17.28;72.44;100802.53;5074162;28;20023;-51
2023/07/16 03:08:09;;;;;;;17.92;7.57;;;;;;;16.57;75.92;100807.69;5092123;28;20077;-51
2023/07/16 03:10:36;;;;;;;17.02;7.03;;;;;;;16.56;76.20;100806.88;5092541;28;20097;-49
2023/07/16 03:13:02;;;;;;;13.95;7.25;;;;;;;16.35;77.75;100815.72;5092369;28;20070;-48
2023/07/16 03:15:28;;;;;;;12.80;7.22;;;;;;;16.13;78.74;100823.72;5080818;28;20099;-48
2023/07/16 03:17:55;;;;;;;15.27;7.80;;;;;;;16.07;79.25;100819.28;5092257;28;20107;-50
2023/07/16 03:20:21;;;;;;;17.80;8.82;;;;;;;15.71;80.85;100812.41;5092005;28;20036;-51
2023/07/16 03:22:48;;;;;;;18.05;7.40;;;;;;;15.69;81.36;100825.31;5092372;28;20111;-50
2023/07/16 03:25:14;;;;;;;12.57;6.97;;;;;;;15.57;82.40;100825.31;5091442;28;20065;-47
2023/07/16 03:27:40;;;;;;;17.45;8.35;;;;;;;15.23;83.19;100822.47;5092310;28;20112;-46
2023/07/16 03:30:07;;;;;;;18.10;8.68;;;;;;;14.99;84.73;100832.47;5089823;28;20067;-47
2023/07/16 03:32:33;;;;;;;14.75;7.95;;;;;;;14.95;84.70;100834.00;5092214;28;20024;-49
2023/07/16 03:35:00;;;;;;;21.27;8.50;;;;;;;14.81;85.88;100837.97;5091844;28;20020;-50
2023/07/16 03:37:26;;;;;;;14.85;7.55;;;;;;;14.89;85.71;100834.13;5092402;28;20473;-47
2023/07/16 03:39:52;;;;;;;16.48;8.70;;;;;;;14.72;86.21;100829.44;5091418;28;20024;-50
2023/07/16 03:42:18;;;;;;;15.68;7.40;;;;;;;14.78;86.02;100822.28;5092434;28;20358;-48
2023/07/16 03:44:45;;;;;;;18.33;7.75;;;;;;;14.75;85.92;100823.56;5091269;28;20067;-49
2023/07/16 03:47:11;;;;;;;16.30;7.78;;;;;;;14.77;86.14;100824.16;5086257;28;20028;-48
2023/07/16 03:49:37;;;;;;;15.05;7.57;;;;;;;14.69;86.24;100824.50;5072596;28;20032;-45
2023/07/16 03:52:04;;;;;;;16.40;8.07;;;;;;;14.63;86.49;100824.59;5071671;28;20028;-46
2023/07/16 03:54:30;;;;;;;18.25;8.52;;;;;;;14.59;86.89;100831.50;5075780;28;20103;-49
2023/07/16 03:56:56;;;;;;;17.23;9.10;;;;;;;14.24;88.18;100830.38;5056728;28;20068;-50
2023/07/16 03:59:23;;;;;;;12.75;7.40;;;;;;;14.35;87.86;100833.31;5091067;28;20115;-50
2023/07/16 04:01:49;;;;;;;15.13;7.78;;;;;;;14.30;88.35;100842.09;5091712;28;20446;-47
2023/07/16 04:04:15;;;;;;;14.13;8.38;;;;;;;14.19;89.17;100845.56;5090902;28;20461;-49
2023/07/16 04:06:41;;;;;;;17.67;8.35;;;;;;;14.21;89.38;100846.16;5072732;28;20082;-50
2023/07/16 04:09:08;;;;;;;20.13;8.43;;;;;;;14.16;89.46;100854.94;5071159;28;20497;-48
2023/07/16 04:11:34;;;;;;;16.80;8.60;;;;;;;14.13;89.48;100854.56;5089797;28;20036;-50
2023/07/16 04:14:00;;;;;;;15.82;8.18;;;;;;;13.97;90.66;100850.63;5091271;28;20024;-51
2023/07/16 04:16:26;;;;;;;13.40;8.20;;;;;;;14.03;90.65;100851.59;5091477;28;20103;-47
2023/07/16 04:18:53;;;;;;;14.65;7.60;;;;;;;14.02;90.34;100849.97;5091017;28;20062;-50
2023/07/16 04:21:19;;;;;;;13.90;7.63;;;;;;;14.05;90.27;100844.09;5091194;28;20093;-49
2023/07/16 04:23:45;;;;;;;12.88;7.07;;;;;;;13.92;91.05;100854.00;5089147;28;20475;-51
2023/07/16 04:26:11;;;;;;;14.02;8.18;;;;;;;13.81;92.17;100857.47;5091411;28;20055;-48
2023/07/16 04:28:39;;;;;;;16.65;8.02;;;;;;;13.89;91.34;100851.78;5090907;28;20105;-50
2023/07/16 04:31:05;;;;;;;12.43;7.60;;;;;;;13.95;90.99;100856.25;5091007;28;20108;-50
2023/07/16 04:33:31;;;;;;;12.65;7.30;;;;;;;13.96;90.78;100855.19;5089993;28;20028;-50
2023/07/16 04:35:58;;;;;;;12.65;7.13;;;;;;;13.88;91.25;100852.84;5091011;28;20020;-50
2023/07/16 04:38:24;;;;;;;17.08;7.93;;;;;;;13.83;91.48;100862.63;5093336;28;20501;-49
2023/07/16 04:40:50;;;;;;;13.88;6.80;;;;;;;13.94;91.00;100860.00;5093962;28;20142;-48
2023/07/16 04:43:16;;;;;;;15.95;8.10;;;;;;;13.81;91.91;100862.84;5076325;28;20518;-50
2023/07/16 04:45:46;;;;;;;14.10;8.27;;;;;;;13.80;91.96;100863.06;5074386;28;20070;-48
2023/07/16 04:48:13;;;;;;;13.15;7.72;;;;;;;13.95;91.03;100866.19;5074630;28;20386;-48
2023/07/16 04:50:39;;;;;;;11.23;7.93;;;;;;;13.95;90.68;100858.13;5063545;28;20562;-48
2023/07/16 04:53:06;;;;;;;15.38;8.77;;;;;;;13.93;90.78;100862.91;5093701;28;20034;-52
2023/07/16 04:55:41;;;;;;;15.07;7.53;;;;;;;13.89;91.34;100861.72;5092458;28;20382;-48
2023/07/16 04:58:07;;;;;;;13.05;7.78;;;;;;;13.80;91.36;100863.06;5094674;28;20072;-51
2023/07/16 05:00:33;;;;;;;17.23;8.00;;;;;;;13.63;92.43;100873.63;5094559;28;20063;-52
2023/07/16 05:03:00;;;;;;;13.40;7.72;;;;;;;13.58;92.70;100871.63;5094866;28;20028;-51
2023/07/16 05:05:27;;;;;;;12.48;7.38;;;;;;;13.69;92.51;100870.03;5094296;28;20085;-51
2023/07/16 05:07:53;;;;;;;13.73;7.93;;;;;;;13.68;92.78;100869.22;5093833;28;20024;-51
2023/07/16 05:10:19;;;;;;;13.48;8.07;;;;;;;13.61;93.23;100873.03;5075070;28;20031;-52
2023/07/16 05:12:45;;;;;;;14.55;8.02;;;;;;;13.53;93.57;100876.03;5094775;28;20031;-48
2023/07/16 05:15:12;;;;;;;15.55;8.45;;;;;;;13.61;93.00;100881.94;5093323;28;20032;-48
2023/07/16 05:17:38;;;;;;;12.80;8.38;;;;;;;13.59;93.11;100883.19;5093378;28;20032;-49
2023/07/16 05:20:05;;;;;;;17.02;8.50;;;;;;;13.50;94.04;100876.50;5093944;28;20032;-48
2023/07/16 05:22:33;;;;;;;14.00;8.18;;;;;;;13.42;94.32;100873.03;5075664;28;20036;-50
2023/07/16 05:24:59;;;;;;;11.00;7.38;;;;;;;13.43;93.84;100882.72;5086470;28;20028;-51
2023/07/16 05:27:25;;;;;;;13.07;6.85;;;;;;;13.50;93.31;100879.19;5093208;28;20385;-51
2023/07/16 05:29:51;;;;;;;11.95;7.68;;;;;;;13.41;94.02;100876.78;5093824;28;20089;-51
2023/07/16 05:32:17;;;;;;;16.77;7.78;;;;;;;13.41;94.72;100882.16;5094559;28;20462;-50
2023/07/16 05:34:44;;;;;;;11.30;6.65;;;;;;;13.39;94.36;100876.19;5092490;28;20034;-47
2023/07/16 05:37:10;;;;;;;13.00;7.68;;;;;;;13.24;95.38;100888.34;5093950;28;20032;-49
2023/07/16 05:39:37;;;;;;;10.10;6.70;;;;;;;13.41;94.79;100890.22;5093688;28;20031;-48
2023/07/16 05:42:04;;;;;;;12.20;7.60;;;;;;;13.41;94.50;100889.41;5085464;28;20028;-50
2023/07/16 05:44:30;;;;;;;11.13;6.60;;;;;;;13.43;94.81;100895.34;5085620;28;20024;-47
2023/07/16 05:46:56;;;;;;;9.90;6.05;;;;;;;13.33;95.24;100895.91;5093927;28;20498;-50
2023/07/16 05:49:23;;;;;;;14.38;5.95;;;;;;;13.41;95.74;100886.69;5091061;28;20024;-51
2023/07/16 05:51:49;;;;;;;11.60;6.95;;;;;;;13.53;94.09;100900.22;5093644;28;20112;-49
2023/07/16 05:54:16;;;;;;;9.27;5.85;;;;;;;13.47;94.33;100908.13;5091226;28;20074;-50
2023/07/16 05:56:42;;;;;;;11.68;6.47;;;;;;;13.38;94.65;100909.50;5093603;28;20123;-48
2023/07/16 05:59:08;;;;;;;11.68;6.28;;;;;;;13.35;94.48;100914.47;5075004;28;20047;-48
2023/07/16 06:01:36;;;;;;;9.35;5.43;;;;;;;13.47;93.01;100913.50;5093353;28;20036;-50
2023/07/16 06:04:02;;;;;;;12.52;6.22;;;;;;;13.32;93.48;100907.66;5093207;28;20435;-50
2023/07/16 06:06:30;;;;;;;10.25;6.32;;;;;;;13.32;94.03;100902.28;5093314;28;20032;-49
2023/07/16 06:08:56;;;;;;;10.68;6.60;;;;;;;13.39;94.54;100905.75;5092010;28;20028;-47
2023/07/16 06:11:22;;;;;;;19.38;6.82;;;;;;;13.40;94.63;100899.31;5092386;28;20038;-50
2023/07/16 06:13:48;;;;;;;13.55;6.88;;;;;;;13.53;94.64;100894.84;5093138;28;20035;-47
2023/07/16 06:16:15;;;;;;;17.15;6.78;;;;;;;13.51;94.93;100897.75;5092842;28;20136;-48
2023/07/16 06:18:41;;;;;;;12.05;6.93;;;;;;;13.51;95.19;100897.75;5093027;28;20432;-48
2023/07/16 06:21:09;;;;;;;14.77;6.60;;;;;;;13.65;95.07;100903.81;5093261;28;20048;-50
2023/07/16 06:23:36;;;;;;;13.82;7.10;;;;;;;13.72;94.63;100902.69;5092541;28;20341;-51
2023/07/16 06:26:02;;;;;;;19.08;7.35;;;;;;;13.78;94.08;100895.59;5092818;28;20020;-51
2023/07/16 06:28:28;;;;;;;13.73;7.22;;;;;;;13.80;93.81;100893.50;5092807;28;20489;-50
2023/07/16 06:30:55;;;;;;;10.38;6.60;;;;;;;13.75;94.07;100893.34;5090946;28;20066;-51
2023/07/16 06:33:21;;;;;;;14.80;6.88;;;;;;;13.70;93.80;100893.19;5091693;28;20051;-51
2023/07/16 06:35:48;;;;;;;14.98;7.10;;;;;;;13.87;93.04;100893.41;5092609;28;20547;-49
2023/07/16 06:38:15;;;;;;;12.18;6.97;;;;;;;13.83;92.13;100903.00;5092083;28;20039;-47
2023/07/16 06:40:48;;;;;;;10.88;6.55;;;;;;;13.63;92.32;100908.59;5092438;28;20031;-48
2023/07/16 06:43:15;;;;;;;9.80;5.75;;;;;;;13.64;92.56;100904.84;5087726;28;20109;-48
2023/07/16 06:45:42;;;;;;;13.63;6.22;;;;;;;13.47;93.49;100900.06;5074334;28;20077;-50
2023/07/16 06:48:08;;;;;;;9.45;5.68;;;;;;;13.61;92.94;100899.94;5091823;28;20516;-48
2023/07/16 06:50:35;;;;;;;8.38;5.72;;;;;;;13.57;92.99;100902.25;5092324;28;20140;-47
2023/07/16 06:53:01;;;;;;;13.20;6.55;;;;;;;13.50;93.39;100898.81;5092026;28;20024;-50
2023/07/16 06:55:27;;;;;;;13.68;7.20;;;;;;;13.38;94.33;100909.50;5091807;28;20024;-47
2023/07/16 06:57:53;;;;;;;10.80;6.28;;;;;;;13.27;95.19;100906.69;5092259;28;20052;-47
2023/07/16 07:00:20;;;;;;;14.93;6.50;;;;;;;13.36;95.30;100906.19;5091720;28;20507;-46
2023/07/16 07:02:46;;;;;;;10.20;6.63;;;;;;;13.34;95.01;100910.97;5092275;28;20102;-48
2023/07/16 07:05:12;;;;;;;9.48;5.10;;;;;;;13.33;95.38;100903.97;5091717;28;20267;-47
2023/07/16 07:07:38;;;;;;;7.85;4.72;;;;;;;13.39;95.51;100913.00;5091847;28;20027;-47
2023/07/16 07:10:05;;;;;;;11.43;6.68;;;;;;;13.32;96.19;100909.53;5092067;28;20043;-47
2023/07/16 07:12:37;;;;;;;11.48;6.05;;;;;;;13.13;96.92;100916.72;5091996;28;20099;-48
2023/07/16 07:15:07;;;;;;;9.52;5.50;;;;;;;13.37;96.10;100917.75;5091631;28;20089;-48
2023/07/16 07:17:33;;;;;;;8.70;6.22;;;;;;;13.46;95.28;100917.25;5091933;28;20043;-50
2023/07/16 07:20:01;;;;;;;12.55;6.75;;;;;;;13.34;95.09;100912.84;5091900;28;20023;-50
2023/07/16 07:22:27;;;;;;;14.77;7.53;;;;;;;13.32;95.36;100913.03;5091674;28;20020;-50
2023/07/16 07:24:53;;;;;;;11.20;6.53;;;;;;;13.33;95.48;100912.03;5091683;28;20020;-51
2023/07/16 07:27:19;;;;;;;10.55;6.13;;;;;;;13.31;94.81;100910.59;5091890;28;20129;-49
2023/07/16 07:29:51;;;;;;;14.77;8.18;;;;;;;13.11;96.33;100908.06;5091872;28;20031;-48
2023/07/16 07:32:20;;;;;;;12.55;7.10;;;;;;;13.20;96.27;100907.56;5080742;28;20028;-50
2023/07/16 07:34:47;;;;;;;12.85;7.80;;;;;;;13.32;95.99;100907.66;5071152;28;20428;-48
2023/07/16 07:37:14;;;;;;;13.50;7.28;;;;;;;13.43;95.51;100895.34;5089657;28;20123;-50
2023/07/16 07:39:40;;;;;;;12.20;7.47;;;;;;;13.45;95.24;100904.88;5091641;28;20063;-50
2023/07/16 07:42:07;;;;;;;21.70;7.65;;;;;;;13.29;95.75;100905.44;5082151;28;20036;-48
2023/07/16 07:44:33;;;;;;;14.07;7.03;;;;;;;13.31;95.05;100897.97;5084558;28;20463;-48
2023/07/16 07:46:59;;;;;;;12.27;7.03;;;;;;;13.30;95.03;100898.19;5091653;28;20028;-47
2023/07/16 07:49:26;;;;;;;12.77;6.88;;;;;;;13.25;95.75;100893.47;5090781;28;20055;-47
2023/07/16 07:51:52;;;;;;;14.02;7.43;;;;;;;13.31;95.93;100889.91;5091893;28;20107;-48
2023/07/16 07:54:18;;;;;;;11.60;7.25;;;;;;;13.37;95.76;100894.38;5090541;28;20414;-51
2023/07/16 07:56:46;;;;;;;12.93;6.65;;;;;;;13.29;96.39;100889.31;5091169;28;20051;-48
2023/07/16 07:59:12;;;;;;;11.65;6.28;;;;;;;13.32;96.42;100885.34;5091667;28;20125;-49
2023/07/16 08:01:39;;;;;;;9.65;6.30;;;;;;;13.22;96.88;100885.88;5091307;28;20062;-46
2023/07/16 08:04:05;;;;;;;13.13;6.15;;;;;;;13.24;97.00;100882.97;5091470;28;20112;-48
2023/07/16 08:06:32;;;;;;;16.20;7.57;;;;;;;13.27;96.96;100879.81;5091282;28;20020;-48
2023/07/16 08:08:58;;;;;;;16.83;7.43;;;;;;;13.32;96.80;100886.16;5091377;28;20040;-50
2023/07/16 08:11:24;;;;;;;10.10;6.15;;;;;;;13.39;96.50;100875.38;5090700;28;20267;-48
2023/07/16 08:13:50;;;;;;;12.27;7.00;;;;;;;13.47;95.86;100881.25;5095376;28;20040;-47
2023/07/16 08:16:17;;;;;;;12.55;6.68;;;;;;;13.46;95.51;100874.22;5095121;28;20066;-47
2023/07/16 08:18:43;;;;;;;12.18;6.30;;;;;;;13.38;96.16;100876.38;5095260;28;20089;-47
2023/07/16 08:21:09;;;;;;;13.50;7.78;;;;;;;13.43;95.54;100880.03;5095252;28;20062;-47
2023/07/16 08:23:35;;;;;;;12.23;7.32;;;;;;;13.22;97.45;100882.38;5095104;28;20028;-48
2023/07/16 08:26:02;;;;;;;14.05;7.22;;;;;;;13.21;98.22;100886.91;5095168;28;20028;-50
2023/07/16 08:28:28;;;;;;;11.00;6.15;;;;;;;13.30;97.59;100890.94;5095054;28;20024;-47
2023/07/16 08:30:54;;;;;;;12.45;7.03;;;;;;;13.29;97.62;100883.94;5094789;28;20031;-48
2023/07/16 08:33:20;;;;;;;10.10;5.72;;;;;;;13.30;97.66;100885.56;5076585;28;20428;-49
2023/07/16 08:35:46;;;;;;;8.52;5.35;;;;;;;13.40;97.04;100880.50;5095173;28;20020;-49
2023/07/16 08:38:13;;;;;;;8.48;5.55;;;;;;;13.31;98.06;100891.78;5094307;28;20486;-46
2023/07/16 08:40:40;;;;;;;10.23;6.20;;;;;;;13.35;98.09;100893.78;5094993;28;20039;-48
2023/07/16 08:43:07;;;;;;;10.05;5.55;;;;;;;13.50;97.20;100879.19;5094238;28;20027;-48
2023/07/16 08:45:39;;;;;;;10.52;6.03;;;;;;;13.51;97.00;100887.00;5094915;28;20028;-49
2023/07/16 08:48:06;;;;;;;12.02;6.47;;;;;;;13.61;96.32;100889.19;5094646;28;20050;-48
2023/07/16 08:50:37;;;;;;;8.18;5.43;;;;;;;13.59;95.93;100892.06;5094729;28;20397;-50
2023/07/16 08:53:06;;;;;;;11.82;6.93;;;;;;;13.51;96.60;100888.88;5093898;28;20101;-49
2023/07/16 08:55:34;;;;;;;11.07;6.18;;;;;;;13.58;96.69;100886.94;5094955;28;20067;-48
2023/07/16 08:58:02;;;;;;;11.40;6.18;;;;;;;13.54;96.27;100883.03;5093137;28;20131;-49
2023/07/16 09:00:30;;;;;;;12.75;6.72;;;;;;;13.51;96.35;100883.50;5093353;28;20028;-49
2023/07/16 09:02:56;;;;;;;14.13;6.30;;;;;;;13.41;97.01;100884.00;5092958;28;20062;-49
2023/07/16 09:05:23;;;;;;;15.35;7.20;;;;;;;13.47;97.11;100877.75;5093070;28;20108;-48
2023/07/16 09:07:50;;;;;;;13.02;7.28;;;;;;;13.42;97.93;100881.09;5073798;28;20389;-48
2023/07/16 09:10:18;;;;;;;14.50;7.30;;;;;;;13.52;96.74;100877.88;5093484;28;20397;-49
2023/07/16 09:12:46;;;;;;;13.50;7.25;;;;;;;13.39;97.55;100876.19;5092848;28;20028;-50
2023/07/16 09:15:16;;;;;;;17.20;7.13;;;;;;;13.43;97.33;100880.03;5092933;28;20073;-46
2023/07/16 09:17:42;;;;;;;10.70;7.30;;;;;;;13.44;97.31;100870.13;5092899;28;20419;-46
2023/07/16 09:20:14;;;;;;;11.68;6.30;;;;;;;13.58;96.67;100873.47;5093162;28;20059;-45
2023/07/16 09:22:40;;;;;;;11.85;6.32;;;;;;;13.51;97.33;100870.06;5092634;28;20085;-46
2023/07/16 09:25:07;;;;;;;16.05;6.85;;;;;;;13.52;96.93;100874.38;5092720;28;20064;-49
2023/07/16 09:27:33;;;;;;;14.95;6.63;;;;;;;13.50;97.04;100871.09;5092884;28;20063;-48
2023/07/16 09:30:02;;;;;;;11.43;6.03;;;;;;;13.48;97.13;100866.75;5093052;28;20043;-44
2023/07/16 09:32:41;;;;;;;11.05;5.95;;;;;;;13.37;97.56;100869.38;5074498;28;20024;-45
2023/07/16 09:35:12;;;;;;;13.38;5.88;;;;;;;13.46;97.54;100873.41;5092915;28;20025;-45
2023/07/16 09:37:39;;;;;;;10.38;5.78;;;;;;;13.51;97.40;100870.06;5092237;28;20020;-47
2023/07/16 09:40:10;;;;;;;14.43;6.68;;;;;;;13.37;98.23;100867.50;5092830;28;20079;-47
2023/07/16 09:42:40;;;;;;;13.00;5.95;;;;;;;13.40;98.32;100869.75;5087228;28;20028;-45
2023/07/16 09:45:27;;;;;;;11.60;6.25;;;;;;;13.57;97.47;100867.28;5092733;28;20027;-48
2023/07/16 09:47:53;;;;;;;8.00;5.53;;;;;;;13.53;97.58;100867.94;5092201;28;20062;-47
2023/07/16 09:50:23;;;;;;;9.88;6.10;;;;;;;13.55;97.28;100869.38;5093040;28;20040;-45
2023/07/16 09:52:50;;;;;;;14.73;6.00;;;;;;;13.60;97.25;100860.63;5091897;28;20028;-45
2023/07/16 09:55:18;;;;;;;11.48;5.72;;;;;;;13.60;97.08;100853.41;5092360;28;20027;-46
2023/07/16 09:57:46;;;;;;;11.23;5.53;;;;;;;13.63;96.67;100857.50;5023387;28;1972163;-46
2023/07/16 10:00:15;;;;;;;10.07;5.57;;;;;;;13.71;96.32;100863.41;5093429;28;20046;-49
2023/07/16 10:02:42;;;;;;;10.65;5.20;;;;;;;13.70;96.25;100858.22;5092995;28;20103;-46
2023/07/16 10:05:16;;;;;;;10.82;5.38;;;;;;;13.68;96.47;100861.16;5093220;28;20159;-45
2023/07/16 10:07:42;;;;;;;8.15;5.18;;;;;;;13.64;96.91;100848.38;5092942;28;20024;-45
2023/07/16 10:10:11;;;;;;;8.68;5.28;;;;;;;13.64;97.04;100843.81;5093374;28;20383;-45
2023/07/16 10:12:38;;;;;;;10.95;5.85;;;;;;;13.68;96.70;100845.00;5092697;28;20027;-45
2023/07/16 10:15:05;;;;;;;9.75;5.55;;;;;;;13.76;96.40;100846.56;5093051;28;20040;-45
2023/07/16 10:17:33;;;;;;;12.23;5.13;;;;;;;13.65;96.96;100839.25;5092813;28;20027;-45
2023/07/16 10:20:12;;;;;;;11.48;5.60;;;;;;;13.60;97.28;100842.66;5093022;28;20032;-48
2023/07/16 10:22:41;;;;;;;13.07;5.97;;;;;;;13.64;97.09;100832.25;5092803;28;20024;-46
2023/07/16 10:25:23;;;;;;;9.70;5.93;;;;;;;13.67;97.54;100837.19;5091002;28;20101;-45
2023/07/16 10:27:52;;;;;;;12.88;6.55;;;;;;;13.68;97.01;100836.94;5089798;28;20050;-45
2023/07/16 10:30:18;;;;;;;14.45;6.22;;;;;;;13.76;96.43;100830.41;5093037;28;20390;-49
2023/07/16 10:32:46;;;;;;;12.40;6.53;;;;;;;13.63;97.21;100834.09;5092233;28;20024;-46
2023/07/16 10:35:13;;;;;;;14.27;6.55;;;;;;;13.73;97.27;100830.88;5091972;28;20028;-46
2023/07/16 10:37:40;;;;;;;16.88;6.60;;;;;;;13.68;97.25;100828.06;5092181;28;20423;-48
2023/07/16 10:40:11;;;;;;;14.45;6.72;;;;;;;13.66;97.46;100835.53;5092423;28;20103;-49
2023/07/16 10:42:40;;;;;;;11.65;5.57;;;;;;;13.78;96.34;100836.41;5072819;28;20100;-48
2023/07/16 10:45:08;;;;;;;11.25;5.97;;;;;;;13.67;96.88;100826.41;5080054;28;20473;-47
2023/07/16 10:47:36;;;;;;;13.65;6.20;;;;;;;13.85;95.92;100829.06;5093028;28;20020;-51
2023/07/16 10:50:08;;;;;;;10.88;5.97;;;;;;;13.80;96.14;100833.47;5093075;28;20024;-50
2023/07/16 10:52:35;;;;;;;13.23;6.15;;;;;;;13.85;95.81;100836.31;5092710;28;20061;-47
2023/07/16 10:55:02;;;;;;;9.75;5.88;;;;;;;13.81;95.47;100827.06;5092459;28;20377;-50
2023/07/16 10:57:29;;;;;;;12.20;6.35;;;;;;;13.98;94.90;100836.13;5083234;28;20040;-50
2023/07/16 10:59:58;;;;;;;12.32;6.90;;;;;;;14.07;94.21;100829.38;5072326;28;20126;-49
2023/07/16 11:02:25;;;;;;;11.48;6.47;;;;;;;14.08;94.55;100828.31;5072651;28;20551;-50
2023/07/16 11:04:57;;;;;;;19.15;8.02;;;;;;;14.11;94.50;100829.75;5071999;28;20107;-49
2023/07/16 11:07:24;;;;;;;22.10;7.75;;;;;;;14.18;94.06;100828.59;5072515;28;20028;-50
2023/07/16 11:09:54;;;;;;;21.02;7.85;;;;;;;14.13;94.68;100825.78;5072234;28;20056;-49
2023/07/16 11:12:24;;;;;;;25.85;9.20;;;;;;;14.06;95.13;100827.75;5074564;28;20013;-49
2023/07/16 11:14:55;;;;;;;20.02;8.70;;;;;;;13.82;96.48;100826.81;5071637;28;20105;-50
2023/07/16 11:17:23;;;;;;;21.73;9.20;;;;;;;13.89;96.33;100819.50;5071654;28;20481;-50
2023/07/16 11:19:52;;;;;;;18.67;8.75;;;;;;;13.96;96.11;100825.59;5071712;28;20027;-47